createdAt,value
2022-10-19T00:00:31.169Z,99655.00
2022-10-19T00:03:02.055Z,99651.00
2022-10-19T00:05:32.892Z,99656.00
2022-10-19T00:08:04.027Z,99658.00
2022-10-19T00:10:35.407Z,99654.00
2022-10-19T00:13:06.342Z,99662.00
2022-10-19T00:15:41.423Z,99658.00
2022-10-19T00:18:12.385Z,99664.00
2022-10-19T00:20:43.294Z,99664.00
2022-10-19T00:23:14.627Z,99656.00
2022-10-19T00:25:56.361Z,99660.00
2022-10-19T00:28:27.624Z,99657.00
2022-10-19T00:31:04.743Z,99667.00
2022-10-19T00:33:36.030Z,99682.00
2022-10-19T00:36:25.518Z,99664.00
2022-10-19T00:38:57.711Z,99663.00
2022-10-19T00:41:32.843Z,99663.00
2022-10-19T00:44:27.920Z,99670.00
2022-10-19T00:47:05.574Z,99662.00
2022-10-19T00:49:40.541Z,99657.00
2022-10-19T00:52:18.540Z,99661.00
2022-10-19T00:54:50.755Z,99670.00
2022-10-19T00:57:22.964Z,99661.00
2022-10-19T00:59:54.786Z,99664.00
2022-10-19T01:02:25.710Z,99667.00
2022-10-19T01:04:56.919Z,99666.00
2022-10-19T01:07:28.393Z,99694.00
2022-10-19T01:10:00.858Z,99661.00
2022-10-19T01:12:46.834Z,99659.00
2022-10-19T01:15:39.374Z,99667.00
2022-10-19T01:18:22.838Z,99663.00
2022-10-19T01:21:18.388Z,99659.00
2022-10-19T01:24:05.125Z,99657.00
2022-10-19T01:27:12.160Z,99654.00
2022-10-19T01:30:27.017Z,99655.00
2022-10-19T01:33:35.864Z,99653.00
2022-10-19T01:36:23.396Z,99670.00
2022-10-19T01:39:09.785Z,99640.00
2022-10-19T01:42:03.233Z,99656.00
2022-10-19T01:45:02.878Z,99636.00
2022-10-19T01:47:43.871Z,99632.00
2022-10-19T01:50:36.330Z,99634.00
2022-10-19T01:53:10.568Z,99625.00
2022-10-19T01:55:45.224Z,99641.00
2022-10-19T01:58:23.825Z,99631.00
2022-10-19T02:00:57.528Z,99620.00
2022-10-19T02:03:29.163Z,99620.00
2022-10-19T02:06:02.937Z,99611.00
2022-10-19T02:08:48.855Z,99608.00
2022-10-19T02:11:22.304Z,99611.00
2022-10-19T02:14:05.368Z,99606.00
2022-10-19T02:16:50.131Z,99614.00
2022-10-19T02:21:58.673Z,99613.00
2022-10-19T02:24:29.544Z,99614.00
2022-10-19T02:27:01.833Z,99606.00
2022-10-19T02:29:34.830Z,99596.00
2022-10-19T02:32:06.744Z,99597.00
2022-10-19T02:34:39.402Z,99588.00
2022-10-19T02:37:10.425Z,99589.00
2022-10-19T02:39:41.389Z,99592.00
2022-10-19T02:42:35.638Z,99593.00
2022-10-19T02:45:17.793Z,99593.00
2022-10-19T02:47:58.372Z,99591.00
2022-10-19T02:50:29.795Z,99591.00
2022-10-19T02:53:00.716Z,99588.00
2022-10-19T02:55:31.736Z,99588.00
2022-10-19T02:58:02.633Z,99589.00
2022-10-19T03:00:33.739Z,99573.00
2022-10-19T03:03:04.715Z,99583.00
2022-10-19T03:05:35.634Z,99579.00
2022-10-19T03:08:06.535Z,99575.00
2022-10-19T03:10:37.466Z,99577.00
2022-10-19T03:13:08.447Z,99574.00
2022-10-19T03:15:39.337Z,99569.00
2022-10-19T03:18:10.199Z,99573.00
2022-10-19T03:20:41.130Z,99571.00
2022-10-19T03:23:11.987Z,99563.00
2022-10-19T03:25:42.883Z,99566.00
2022-10-19T03:28:13.750Z,99570.00
2022-10-19T03:30:44.648Z,99556.00
2022-10-19T03:33:15.600Z,99556.00
2022-10-19T03:35:46.691Z,99567.00
2022-10-19T03:38:17.737Z,99557.00
2022-10-19T03:40:48.600Z,99564.00
2022-10-19T03:43:19.472Z,99560.00
2022-10-19T03:45:50.353Z,99568.00
2022-10-19T03:48:21.205Z,99561.00
2022-10-19T03:51:08.156Z,99569.00
2022-10-19T03:53:40.664Z,99547.00
2022-10-19T03:56:16.059Z,99547.00
2022-10-19T03:58:50.409Z,99546.00
2022-10-19T04:01:37.151Z,99560.00
2022-10-19T04:04:16.319Z,99546.00
2022-10-19T04:06:49.990Z,99553.00
2022-10-19T04:09:23.184Z,99552.00
2022-10-19T04:11:54.131Z,99562.00
2022-10-19T04:14:32.526Z,99556.00
2022-10-19T04:17:05.026Z,99555.00
2022-10-19T04:19:35.958Z,99556.00
2022-10-19T04:22:06.937Z,99552.00
2022-10-19T04:24:37.829Z,99547.00
2022-10-19T04:27:08.749Z,99560.00
2022-10-19T04:29:39.662Z,99553.00
2022-10-19T04:32:10.557Z,99571.00
2022-10-19T04:34:41.468Z,99550.00
2022-10-19T04:37:12.384Z,99555.00
2022-10-19T04:39:44.551Z,99562.00
2022-10-19T04:42:15.448Z,99566.00
2022-10-19T04:44:46.370Z,99570.00
2022-10-19T04:47:17.283Z,99560.00
2022-10-19T04:49:48.208Z,99557.00
2022-10-19T04:52:19.502Z,99553.00
2022-10-19T04:54:50.379Z,99555.00
2022-10-19T04:57:21.230Z,99564.00
2022-10-19T04:59:52.168Z,99553.00
2022-10-19T05:02:23.097Z,99562.00
2022-10-19T05:04:53.983Z,99552.00
2022-10-19T05:07:24.912Z,99557.00
2022-10-19T05:09:55.793Z,99549.00
2022-10-19T05:12:26.666Z,99564.00
2022-10-19T05:14:57.635Z,99562.00
2022-10-19T05:17:32.721Z,99553.00
2022-10-19T05:20:04.691Z,99556.00
2022-10-19T05:22:35.572Z,99575.00
2022-10-19T05:25:07.960Z,99560.00
2022-10-19T05:27:38.885Z,99552.00
2022-10-19T05:30:10.263Z,99560.00
2022-10-19T05:32:41.131Z,99568.00
2022-10-19T05:35:12.151Z,99557.00
2022-10-19T05:37:43.034Z,99547.00
2022-10-19T05:40:14.025Z,99553.00
2022-10-19T05:42:44.881Z,99555.00
2022-10-19T05:45:15.931Z,99549.00
2022-10-19T05:47:46.800Z,99551.00
2022-10-19T05:50:17.820Z,99547.00
2022-10-19T05:52:48.692Z,99541.00
2022-10-19T05:55:19.567Z,99548.00
2022-10-19T05:57:50.414Z,99548.00
2022-10-19T06:00:21.744Z,99544.00
2022-10-19T06:02:56.872Z,99547.00
2022-10-19T06:05:29.872Z,99553.00
2022-10-19T06:08:00.745Z,99563.00
2022-10-19T06:10:31.655Z,99557.00
2022-10-19T06:13:02.519Z,99564.00
2022-10-19T06:15:36.471Z,99564.00
2022-10-19T06:18:13.146Z,99568.00
2022-10-19T06:20:44.061Z,99566.00
2022-10-19T06:23:15.172Z,99566.00
2022-10-19T06:25:46.140Z,99585.00
2022-10-19T06:28:17.055Z,99572.00
2022-10-19T06:30:47.982Z,99571.00
2022-10-19T06:33:18.903Z,99569.00
2022-10-19T06:35:49.799Z,99575.00
2022-10-19T06:38:20.740Z,99571.00
2022-10-19T06:40:51.642Z,99575.00
2022-10-19T06:43:22.500Z,99579.00
2022-10-19T06:45:53.450Z,99579.00
2022-10-19T06:48:24.728Z,99579.00
2022-10-19T06:51:00.670Z,99574.00
2022-10-19T06:53:34.272Z,99577.00
2022-10-19T06:56:07.099Z,99580.00
2022-10-19T06:58:39.305Z,99576.00
2022-10-19T07:01:11.870Z,99571.00
2022-10-19T07:03:43.696Z,99564.00
2022-10-19T07:06:14.721Z,99566.00
2022-10-19T07:08:45.852Z,99565.00
2022-10-19T07:11:20.712Z,99572.00
2022-10-19T07:13:53.466Z,99573.00
2022-10-19T07:16:24.389Z,99579.00
2022-10-19T07:18:55.271Z,99577.00
2022-10-19T07:21:26.162Z,99568.00
2022-10-19T07:23:57.239Z,99570.00
2022-10-19T07:26:30.500Z,99572.00
2022-10-19T07:29:02.910Z,99575.00
2022-10-19T07:31:33.899Z,99583.00
2022-10-19T07:34:05.947Z,99578.00
2022-10-19T07:36:37.107Z,99581.00
2022-10-19T07:39:08.444Z,99582.00
2022-10-19T07:41:39.946Z,99582.00
2022-10-19T07:44:14.790Z,99578.00
2022-10-19T07:46:46.680Z,99578.00
2022-10-19T07:49:19.089Z,99584.00
2022-10-19T07:51:53.955Z,99575.00
2022-10-19T07:54:25.195Z,99581.00
2022-10-19T07:56:56.066Z,99575.00
2022-10-19T07:59:27.143Z,99579.00
2022-10-19T08:01:59.087Z,99578.00
2022-10-19T08:07:21.196Z,99580.00
2022-10-19T08:09:53.983Z,99585.00
2022-10-19T08:12:25.449Z,99569.00
2022-10-19T08:14:56.333Z,99583.00
2022-10-19T08:17:27.184Z,99580.00
2022-10-19T08:19:58.054Z,99583.00
2022-10-19T08:22:28.910Z,99577.00
2022-10-19T08:24:59.840Z,99573.00
2022-10-19T08:27:30.769Z,99576.00
2022-10-19T08:30:01.651Z,99576.00
2022-10-19T08:32:32.908Z,99568.00
2022-10-19T08:35:08.483Z,99564.00
2022-10-19T08:37:45.309Z,99573.00
2022-10-19T08:40:25.616Z,99579.00
2022-10-19T08:43:28.195Z,99575.00
2022-10-19T08:46:30.083Z,99572.00
2022-10-19T08:49:03.089Z,99577.00
2022-10-19T08:51:39.244Z,99578.00
2022-10-19T08:54:17.090Z,99570.00
2022-10-19T08:57:31.417Z,99575.00
2022-10-19T09:01:03.617Z,99576.00
2022-10-19T09:04:01.850Z,99569.00
2022-10-19T09:07:03.428Z,99569.00
2022-10-19T09:09:38.397Z,99576.00
2022-10-19T09:12:14.915Z,99563.00
2022-10-19T09:15:01.842Z,99569.00
2022-10-19T09:17:33.661Z,99561.00
2022-10-19T09:20:32.976Z,99573.00
2022-10-19T09:23:28.942Z,99557.00
2022-10-19T09:25:59.831Z,99556.00
2022-10-19T09:28:53.526Z,99579.00
2022-10-19T09:31:39.559Z,99556.00
2022-10-19T09:34:22.554Z,99551.00
2022-10-19T09:36:57.386Z,99551.00
2022-10-19T09:39:31.139Z,99546.00
2022-10-19T09:42:22.387Z,99561.00
2022-10-19T09:44:55.224Z,99562.00
2022-10-19T09:47:37.404Z,99552.00
2022-10-19T09:50:23.386Z,99553.00
2022-10-19T09:52:58.612Z,99551.00
2022-10-19T09:55:42.917Z,99555.00
2022-10-19T09:58:13.805Z,99551.00
2022-10-19T10:00:50.594Z,99550.00
2022-10-19T10:03:43.737Z,99552.00
2022-10-19T10:06:17.080Z,99553.00
2022-10-19T10:08:59.137Z,99551.00
2022-10-19T10:11:40.123Z,99549.00
2022-10-19T10:14:33.046Z,99540.00
2022-10-19T10:17:16.299Z,99539.00
2022-10-19T10:20:27.879Z,99541.00
2022-10-19T10:23:03.345Z,99545.00
2022-10-19T10:25:36.867Z,99542.00
2022-10-19T10:28:23.829Z,99548.00
2022-10-19T10:31:09.126Z,99539.00
2022-10-19T10:33:45.008Z,99534.00
2022-10-19T10:36:16.587Z,99536.00
2022-10-19T10:38:52.786Z,99529.00
2022-10-19T10:41:24.623Z,99518.00
2022-10-19T10:44:00.841Z,99518.00
2022-10-19T10:46:38.625Z,99518.00
2022-10-19T10:49:22.376Z,99516.00
2022-10-19T10:51:57.832Z,99512.00
2022-10-19T10:54:31.654Z,99513.00
2022-10-19T10:57:13.232Z,99505.00
2022-10-19T11:00:21.846Z,99500.00
2022-10-19T11:03:16.222Z,99494.00
2022-10-19T11:06:05.490Z,99503.00
2022-10-19T11:09:06.868Z,99502.00
2022-10-19T11:11:45.833Z,99498.00
2022-10-19T11:14:44.355Z,99492.00
2022-10-19T11:17:26.156Z,99492.00
2022-10-19T11:19:57.104Z,99498.00
2022-10-19T11:23:18.422Z,99489.00
2022-10-19T11:26:27.091Z,99471.00
2022-10-19T11:29:06.719Z,99466.00
2022-10-19T11:31:54.785Z,99457.00
2022-10-19T11:34:40.953Z,99462.00
2022-10-19T11:37:29.477Z,99457.00
2022-10-19T11:41:13.172Z,99451.00
2022-10-19T11:43:53.276Z,99449.00
2022-10-19T11:47:01.705Z,99451.00
2022-10-19T11:49:54.774Z,99431.00
2022-10-19T11:52:34.788Z,99424.00
2022-10-19T11:55:32.915Z,99419.00
2022-10-19T11:58:34.650Z,99423.00
2022-10-19T12:01:19.903Z,99417.00
2022-10-19T12:04:23.275Z,99418.00
2022-10-19T12:07:28.749Z,99412.00
2022-10-19T12:10:24.778Z,99409.00
2022-10-19T12:13:11.593Z,99404.00
2022-10-19T12:15:49.969Z,99410.00
2022-10-19T12:18:42.154Z,99408.00
2022-10-19T12:21:43.503Z,99423.00
2022-10-19T12:24:19.957Z,99401.00
2022-10-19T12:26:53.468Z,99393.00
2022-10-19T12:29:26.877Z,99396.00
2022-10-19T12:32:01.203Z,99401.00
2022-10-19T12:34:55.697Z,99391.00
2022-10-19T12:37:42.217Z,99386.00
2022-10-19T12:40:32.045Z,99387.00
2022-10-19T12:43:49.171Z,99381.00
2022-10-19T12:46:49.830Z,99374.00
2022-10-19T12:49:26.930Z,99372.00
2022-10-19T12:52:00.197Z,99360.00
2022-10-19T12:54:34.749Z,99368.00
2022-10-19T12:57:28.017Z,99368.00
2022-10-19T13:00:06.017Z,99366.00
2022-10-19T13:02:39.950Z,99363.00
2022-10-19T13:05:24.769Z,99346.00
2022-10-19T13:07:56.392Z,99345.00
2022-10-19T13:10:29.332Z,99353.00
2022-10-19T13:13:01.956Z,99338.00
2022-10-19T13:15:35.908Z,99345.00
2022-10-19T13:18:16.880Z,99335.00
2022-10-19T13:20:53.726Z,99343.00
2022-10-19T13:23:30.473Z,99336.00
2022-10-19T13:26:31.016Z,99333.00
2022-10-19T13:29:01.991Z,99330.00
2022-10-19T13:31:34.152Z,99330.00
2022-10-19T13:34:11.576Z,99334.00
2022-10-19T13:37:00.650Z,99325.00
2022-10-19T13:39:38.180Z,99317.00
2022-10-19T13:42:27.197Z,99316.00
2022-10-19T13:44:58.307Z,99313.00
2022-10-19T13:47:41.246Z,99320.00
2022-10-19T13:50:27.588Z,99318.00
2022-10-19T13:53:32.206Z,99309.00
2022-10-19T13:59:51.565Z,99300.00
2022-10-19T14:03:19.226Z,99294.00
2022-10-19T14:06:14.303Z,99289.00
2022-10-19T14:09:19.800Z,99292.00
2022-10-19T14:11:54.154Z,99283.00
2022-10-19T14:14:29.374Z,99278.00
2022-10-19T14:17:04.421Z,99270.00
2022-10-19T14:19:55.346Z,99264.00
2022-10-19T14:22:33.529Z,99276.00
2022-10-19T14:25:18.678Z,99266.00
2022-10-19T14:28:05.579Z,99254.00
2022-10-19T14:30:37.095Z,99251.00
2022-10-19T14:33:11.279Z,99251.00
2022-10-19T14:35:45.834Z,99263.00
2022-10-19T14:38:35.205Z,99251.00
2022-10-19T14:41:18.883Z,99248.00
2022-10-19T14:43:49.775Z,99253.00
2022-10-19T14:46:20.722Z,99253.00
2022-10-19T14:48:52.928Z,99250.00
2022-10-19T14:52:02.463Z,99253.00
2022-10-19T14:54:46.680Z,99251.00
2022-10-19T14:57:28.920Z,99252.00
2022-10-19T15:00:11.856Z,99254.00
2022-10-19T15:03:05.960Z,99249.00
2022-10-19T15:05:48.240Z,99246.00
2022-10-19T15:08:42.826Z,99242.00
2022-10-19T15:11:31.492Z,99251.00
2022-10-19T15:14:15.336Z,99260.00
2022-10-19T15:16:49.335Z,99240.00
2022-10-19T15:19:33.185Z,99247.00
2022-10-19T15:22:23.729Z,99230.00
2022-10-19T15:25:02.942Z,99228.00
2022-10-19T15:27:45.573Z,99226.00
2022-10-19T15:30:23.833Z,99234.00
2022-10-19T15:33:10.843Z,99232.00
2022-10-19T15:35:44.764Z,99240.00
2022-10-19T15:38:28.367Z,99239.00
2022-10-19T15:41:02.156Z,99230.00
2022-10-19T15:43:38.181Z,99230.00
2022-10-19T15:46:26.132Z,99237.00
2022-10-19T15:49:17.529Z,99225.00
2022-10-19T15:51:49.084Z,99216.00
2022-10-19T15:54:20.146Z,99214.00
2022-10-19T15:56:53.118Z,99219.00
2022-10-19T15:59:24.249Z,99232.00
2022-10-19T16:01:56.109Z,99221.00
2022-10-19T16:04:27.311Z,99225.00
2022-10-19T16:06:58.217Z,99218.00
2022-10-19T16:09:29.104Z,99212.00
2022-10-19T16:11:59.963Z,99215.00
2022-10-19T16:14:33.134Z,99208.00
2022-10-19T16:17:07.292Z,99213.00
2022-10-19T16:19:38.179Z,99211.00
2022-10-19T16:22:09.619Z,99210.00
2022-10-19T16:24:41.354Z,99206.00
2022-10-19T16:27:15.190Z,99209.00
2022-10-19T16:29:46.187Z,99210.00
2022-10-19T16:32:17.173Z,99209.00
2022-10-19T16:34:48.095Z,99208.00
2022-10-19T16:37:18.977Z,99211.00
2022-10-19T16:39:49.916Z,99203.00
2022-10-19T16:42:21.834Z,99203.00
2022-10-19T16:44:54.455Z,99204.00
2022-10-19T16:47:25.424Z,99204.00
2022-10-19T16:50:03.152Z,99210.00
2022-10-19T16:52:34.449Z,99214.00
2022-10-19T16:55:06.413Z,99205.00
2022-10-19T16:57:37.706Z,99209.00
2022-10-19T17:00:10.156Z,99214.00
2022-10-19T17:02:44.344Z,99217.00
2022-10-19T17:05:17.409Z,99228.00
2022-10-19T17:07:48.443Z,99220.00
2022-10-19T17:10:19.487Z,99207.00
2022-10-19T17:12:50.380Z,99207.00
2022-10-19T17:15:42.079Z,99211.00
2022-10-19T17:18:12.490Z,99219.00
2022-10-19T17:20:43.459Z,99216.00
2022-10-19T17:23:14.566Z,99209.00
2022-10-19T17:25:49.128Z,99211.00
2022-10-19T17:28:21.048Z,99213.00
2022-10-19T17:31:10.828Z,99219.00
2022-10-19T17:33:42.332Z,99212.00
2022-10-19T17:36:28.194Z,99218.00
2022-10-19T17:39:03.235Z,99211.00
2022-10-19T17:41:34.490Z,99217.00
2022-10-19T17:44:06.218Z,99214.00
2022-10-19T17:46:37.355Z,99214.00
2022-10-19T17:49:09.847Z,99213.00
2022-10-19T17:51:41.167Z,99218.00
2022-10-19T17:54:14.189Z,99218.00
2022-10-19T17:56:45.405Z,99219.00
2022-10-19T17:59:34.576Z,99221.00
2022-10-19T18:02:07.572Z,99214.00
2022-10-19T18:04:41.462Z,99217.00
2022-10-19T18:07:12.570Z,99251.00
2022-10-19T18:09:43.507Z,99215.00
2022-10-19T18:12:18.366Z,99232.00
2022-10-19T18:14:51.936Z,99228.00
2022-10-19T18:17:32.532Z,99227.00
2022-10-19T18:20:27.283Z,99226.00
2022-10-19T18:22:58.201Z,99227.00
2022-10-19T18:25:49.443Z,99225.00
2022-10-19T18:28:23.286Z,99226.00
2022-10-19T18:30:54.184Z,99220.00
2022-10-19T18:33:29.056Z,99222.00
2022-10-19T18:36:13.144Z,99210.00
2022-10-19T18:38:44.160Z,99215.00
2022-10-19T18:41:15.070Z,99217.00
2022-10-19T18:43:55.916Z,99211.00
2022-10-19T18:46:27.270Z,99203.00
2022-10-19T18:48:59.693Z,99202.00
2022-10-19T18:51:31.986Z,99206.00
2022-10-19T18:54:03.222Z,99201.00
2022-10-19T18:56:36.551Z,99208.00
2022-10-19T18:59:07.777Z,99198.00
2022-10-19T19:01:39.183Z,99200.00
2022-10-19T19:04:11.003Z,99202.00
2022-10-19T19:06:42.203Z,99184.00
2022-10-19T19:09:13.751Z,99189.00
2022-10-19T19:11:44.885Z,99190.00
2022-10-19T19:14:22.989Z,99192.00
2022-10-19T19:16:53.906Z,99186.00
2022-10-19T19:19:25.922Z,99192.00
2022-10-19T19:21:57.039Z,99197.00
2022-10-19T19:24:31.563Z,99190.00
2022-10-19T19:27:02.522Z,99187.00
2022-10-19T19:29:33.529Z,99184.00
2022-10-19T19:32:05.028Z,99176.00
2022-10-19T19:34:36.229Z,99177.00
2022-10-19T19:37:10.343Z,99178.00
2022-10-19T19:39:42.748Z,99178.00
2022-10-19T19:42:13.690Z,99169.00
2022-10-19T19:44:44.622Z,99176.00
2022-10-19T19:47:16.380Z,99170.00
2022-10-19T19:49:47.251Z,99171.00
2022-10-19T19:52:18.174Z,99171.00
2022-10-19T19:54:49.195Z,99158.00
2022-10-19T19:57:20.210Z,99161.00
2022-10-19T19:59:51.100Z,99161.00
2022-10-19T20:02:22.007Z,99148.00
2022-10-19T20:04:53.050Z,99159.00
2022-10-19T20:07:23.961Z,99165.00
2022-10-19T20:09:54.848Z,99141.00
2022-10-19T20:12:25.833Z,99147.00
2022-10-19T20:14:56.735Z,99155.00
2022-10-19T20:17:27.738Z,99151.00
2022-10-19T20:19:58.611Z,99150.00
2022-10-19T20:22:29.521Z,99142.00
2022-10-19T20:25:00.497Z,99141.00
2022-10-19T20:27:35.176Z,99135.00
2022-10-19T20:30:07.413Z,99147.00
2022-10-19T20:32:38.823Z,99132.00
2022-10-19T20:35:10.034Z,99131.00
2022-10-19T20:37:40.924Z,99144.00
2022-10-19T20:40:11.973Z,99140.00
2022-10-19T20:42:43.962Z,99144.00
2022-10-19T20:45:15.068Z,99147.00
2022-10-19T20:47:45.936Z,99142.00
2022-10-19T20:50:19.284Z,99138.00
2022-10-19T20:52:52.729Z,99138.00
2022-10-19T20:55:23.636Z,99127.00
2022-10-19T20:57:54.573Z,99120.00
2022-10-19T21:00:25.474Z,99124.00
2022-10-19T21:02:56.426Z,99121.00
2022-10-19T21:05:27.314Z,99124.00
2022-10-19T21:07:58.286Z,99136.00
2022-10-19T21:10:29.626Z,99138.00
2022-10-19T21:13:00.520Z,99137.00
2022-10-19T21:15:31.484Z,99132.00
2022-10-19T21:18:02.351Z,99125.00
2022-10-19T21:20:33.294Z,99132.00
2022-10-19T21:23:04.169Z,99133.00
2022-10-19T21:25:35.063Z,99132.00
2022-10-19T21:28:05.944Z,99127.00
2022-10-19T21:30:36.939Z,99148.00
2022-10-19T21:33:07.828Z,99127.00
2022-10-19T21:35:38.930Z,99130.00
2022-10-19T21:38:09.795Z,99134.00
2022-10-19T21:40:40.744Z,99129.00
2022-10-19T21:43:12.025Z,99138.00
2022-10-19T21:45:42.929Z,99137.00
2022-10-19T21:48:14.294Z,99133.00
2022-10-19T21:50:45.177Z,99121.00
2022-10-19T21:53:26.356Z,99123.00
2022-10-19T21:55:59.647Z,99121.00
2022-10-19T21:58:30.555Z,99106.00
2022-10-19T22:01:08.487Z,99106.00
2022-10-19T22:03:39.412Z,99101.00
2022-10-19T22:06:11.587Z,99098.00
2022-10-19T22:08:46.751Z,99101.00
2022-10-19T22:11:17.889Z,99091.00
2022-10-19T22:13:49.025Z,99095.00
2022-10-19T22:16:21.317Z,99098.00
2022-10-19T22:18:53.400Z,99101.00
2022-10-19T22:21:28.988Z,99100.00
2022-10-19T22:24:03.610Z,99089.00
2022-10-19T22:26:39.461Z,99096.00
2022-10-19T22:29:10.545Z,99094.00
2022-10-19T22:31:41.731Z,99094.00
2022-10-19T22:34:16.427Z,99090.00
2022-10-19T22:36:47.572Z,99096.00
2022-10-19T22:39:18.550Z,99096.00
2022-10-19T22:41:49.421Z,99101.00
2022-10-19T22:44:20.344Z,99102.00
2022-10-19T22:46:51.200Z,99090.00
2022-10-19T22:49:22.371Z,99089.00
2022-10-19T22:51:53.239Z,99084.00
2022-10-19T22:54:24.149Z,99079.00
2022-10-19T22:56:55.063Z,99073.00
2022-10-19T22:59:26.155Z,99072.00
2022-10-19T23:01:57.141Z,99069.00
2022-10-19T23:04:28.063Z,99057.00
2022-10-19T23:06:59.031Z,99064.00
2022-10-19T23:09:30.030Z,99064.00
2022-10-19T23:12:00.895Z,99057.00
2022-10-19T23:14:31.781Z,99070.00
2022-10-19T23:17:02.650Z,99059.00
2022-10-19T23:19:33.583Z,99053.00
2022-10-19T23:22:04.467Z,99040.00
2022-10-19T23:24:38.387Z,99035.00
2022-10-19T23:27:09.335Z,99044.00
2022-10-19T23:29:40.473Z,99027.00
2022-10-19T23:32:11.355Z,99029.00
2022-10-19T23:34:44.555Z,99028.00
2022-10-19T23:37:18.341Z,99024.00
2022-10-19T23:39:49.259Z,99019.00
2022-10-19T23:42:20.199Z,99021.00
2022-10-19T23:44:51.097Z,99042.00
2022-10-19T23:47:22.025Z,99025.00
2022-10-19T23:49:52.946Z,99032.00
2022-10-19T23:52:23.829Z,99017.00
2022-10-19T23:54:54.716Z,99019.00
2022-10-19T23:57:25.706Z,99020.00
2022-10-19T23:59:56.594Z,99024.00
